Aviation Digital Data Service (ADDS)

Output produced by METARs form (2132 UTC 06 March 2015)
found at http://aviationweather.gov/adds/metars/
 
KFAY 061728Z 0618/0718 02010KT P6SM FEW045 
     FM070000 04005KT P6SM SKC 
     FM071500 25006KT P6SM SKC